Dugway Proving Grounds, Utah
Current Conditions -  °F | °C
As of 9:58 AM on Monday 22 Dec 2014 (Local Time) from KU16 Reporting Station
Overcast Overcast  
Wind Chill: 37°   Ceiling: 12000
Heat Index: 44°   Visibility: 10mi
Dew Point: 35°   Wind: 15mph
Humidity: 71%   Direction: 300°WNW
Pressure: 30"   Gusts: NA
Location:  40.2°N, 112.93°W
Report Text: KU16 221658Z AUTO 30013KT 10SM FEW090 OVC120 07/02 A3000 RMK AO2 SLP786 T00670017 $
Loading
Personal Weather Stations






























Interactive Weather Map New forecast layout! Learn more

10-Day Weather Forecast

Advertisements
Track Severe Weather on mobile